Aviation Digital Data Service (ADDS)

Output produced by METARs form (2241 UTC 26 March 2017)
found at http://bcaws.aviationweather.gov/adds/metars/
 
METAR text: KMOD 262153Z 09005KT 10SM OVC080 18/07 A3009 RMK AO2 SLP191 T01830072
Conditions at: KMOD (MODESTO , CA, US) observed 2153 UTC 26 March 2017
Temperature: 18.3°C (65°F)
Dewpoint: 7.2°C (45°F) [RH = 48%]
Pressure (altimeter): 30.09 inches Hg (1019.0 mb)
[Sea-level pressure: 1019.1 mb]
Winds: from the E (90 degrees) at 6 MPH (5 knots; 2.6 m/s)
Visibility: 10 or more miles (16+ km)
Ceiling: 8000 feet AGL
Clouds: overcast cloud deck at 8000 feet AGL
Weather: no significant weather observed at this time